createdAt,value
2023-01-23T00:00:20.758Z,101933.28
2023-01-23T00:03:22.766Z,101935.97
2023-01-23T00:06:25.194Z,101931.56
2023-01-23T00:09:26.582Z,101933.44
2023-01-23T00:12:28.003Z,101927.50
2023-01-23T00:15:29.546Z,101924.19
2023-01-23T00:18:31.116Z,101930.88
2023-01-23T00:21:32.654Z,101923.03
2023-01-23T00:24:34.037Z,101928.25
2023-01-23T00:27:35.519Z,101928.34
2023-01-23T00:30:37.567Z,101924.81
2023-01-23T00:33:43.124Z,101926.63
2023-01-23T00:36:45.217Z,101918.97
2023-01-23T00:39:46.608Z,101920.75
2023-01-23T00:42:48.014Z,101926.84
2023-01-23T00:45:49.915Z,101920.66
2023-01-23T00:48:51.581Z,101917.78
2023-01-23T00:51:56.250Z,101919.38
2023-01-23T00:54:57.670Z,101925.38
2023-01-23T00:57:59.611Z,101917.44
2023-01-23T01:01:01.265Z,101926.19
2023-01-23T01:04:02.803Z,101921.88
2023-01-23T01:07:04.400Z,101922.75
2023-01-23T01:10:06.168Z,101930.44
2023-01-23T01:13:09.079Z,101924.25
2023-01-23T01:16:11.427Z,101931.88
2023-01-23T01:19:14.530Z,101938.09
2023-01-23T01:22:15.962Z,101939.91
2023-01-23T01:25:17.773Z,101944.75
2023-01-23T01:28:19.189Z,101938.56
2023-01-23T01:31:23.127Z,101951.25
2023-01-23T01:34:24.682Z,101946.13
2023-01-23T01:37:26.140Z,101949.56
2023-01-23T01:40:33.151Z,101952.34
2023-01-23T01:43:35.133Z,101941.00
2023-01-23T01:46:36.585Z,101939.28
2023-01-23T01:49:38.146Z,101946.91
2023-01-23T01:52:39.604Z,101946.19
2023-01-23T01:55:41.158Z,101954.09
2023-01-23T01:58:46.297Z,101954.69
2023-01-23T02:01:51.712Z,101956.72
2023-01-23T02:05:00.995Z,101952.16
2023-01-23T02:08:20.642Z,101953.16
2023-01-23T02:11:22.715Z,101947.91
2023-01-23T02:14:25.666Z,101953.19
2023-01-23T02:17:27.131Z,101961.97
2023-01-23T02:20:29.060Z,101966.47
2023-01-23T02:23:55.294Z,101968.03
2023-01-23T02:26:59.292Z,101968.06
2023-01-23T02:30:01.969Z,101975.06
2023-01-23T02:33:28.066Z,101966.47
2023-01-23T02:36:33.801Z,101971.88
2023-01-23T02:39:37.652Z,101957.09
2023-01-23T02:42:42.835Z,101974.25
2023-01-23T02:45:47.450Z,101966.22
2023-01-23T02:48:50.325Z,101970.53
2023-01-23T02:51:54.135Z,101973.25
2023-01-23T02:54:55.803Z,101976.84
2023-01-23T02:58:20.119Z,101969.16
2023-01-23T03:01:21.987Z,101965.69
2023-01-23T03:04:23.597Z,101963.31
2023-01-23T03:07:25.042Z,101956.28
2023-01-23T03:10:26.454Z,101959.06
2023-01-23T03:13:30.303Z,101960.78
2023-01-23T03:16:32.710Z,101957.38
2023-01-23T03:19:34.906Z,101955.63
2023-01-23T03:22:36.438Z,101961.81
2023-01-23T03:25:43.272Z,101965.25
2023-01-23T03:29:03.401Z,101961.75
2023-01-23T03:32:05.735Z,101958.34
2023-01-23T03:35:14.273Z,101969.56
2023-01-23T03:38:17.980Z,101964.50
2023-01-23T03:41:25.490Z,101956.84
2023-01-23T03:44:29.143Z,101957.78
2023-01-23T03:47:31.300Z,101957.78
2023-01-23T03:50:32.853Z,101961.16
2023-01-23T03:53:34.395Z,101956.69
2023-01-23T03:56:37.288Z,101955.94
2023-01-23T03:59:42.629Z,101959.59
2023-01-23T04:02:44.513Z,101950.09
2023-01-23T04:05:48.367Z,101965.84
2023-01-23T04:08:52.517Z,101977.25
2023-01-23T04:11:54.972Z,101979.78
2023-01-23T04:14:56.775Z,101979.75
2023-01-23T04:17:58.226Z,101986.03
2023-01-23T04:21:00.837Z,101979.13
2023-01-23T04:24:02.335Z,101984.44
2023-01-23T04:27:03.833Z,101979.97
2023-01-23T04:30:05.743Z,101994.59
2023-01-23T04:33:09.605Z,101993.69
2023-01-23T04:36:13.283Z,101986.66
2023-01-23T04:39:14.691Z,101998.88
2023-01-23T04:42:19.424Z,102003.31
2023-01-23T04:45:32.510Z,102009.47
2023-01-23T04:48:54.764Z,102011.34
2023-01-23T04:51:59.418Z,102019.09
2023-01-23T04:55:01.074Z,102026.22
2023-01-23T04:58:02.595Z,102033.19
2023-01-23T05:01:06.460Z,102034.69
2023-01-23T05:04:09.710Z,102037.41
2023-01-23T05:07:12.812Z,102038.34
2023-01-23T05:10:19.754Z,102039.25
2023-01-23T05:13:22.678Z,102027.06
2023-01-23T05:16:24.221Z,102036.69
2023-01-23T05:19:48.287Z,102035.06
2023-01-23T05:22:53.471Z,102030.66
2023-01-23T05:26:01.709Z,102040.19
2023-01-23T05:29:04.859Z,102050.53
2023-01-23T05:32:09.662Z,102045.16
2023-01-23T05:35:14.756Z,102041.84
2023-01-23T05:38:18.029Z,102053.84
2023-01-23T05:41:19.597Z,102054.09
2023-01-23T05:44:56.151Z,102046.22
2023-01-23T05:48:03.681Z,102055.75
2023-01-23T05:51:06.051Z,102060.91
2023-01-23T05:54:07.973Z,102057.28
2023-01-23T05:57:10.809Z,102058.97
2023-01-23T06:00:14.555Z,102053.75
2023-01-23T06:03:33.335Z,102049.50
2023-01-23T06:07:05.428Z,102051.97
2023-01-23T06:10:09.846Z,102052.88
2023-01-23T06:13:11.879Z,102050.09
2023-01-23T06:16:13.491Z,102048.88
2023-01-23T06:19:15.949Z,102047.09
2023-01-23T06:22:17.426Z,102040.06
2023-01-23T06:25:37.727Z,102040.00
2023-01-23T06:28:42.055Z,102035.38
2023-01-23T06:31:43.933Z,102043.03
2023-01-23T06:34:45.518Z,102042.97
2023-01-23T06:37:47.422Z,102045.38
2023-01-23T06:40:51.682Z,102046.44
2023-01-23T06:44:13.494Z,102050.34
2023-01-23T06:47:16.543Z,102056.25
2023-01-23T06:50:20.148Z,102057.97
2023-01-23T06:53:21.725Z,102062.81
2023-01-23T06:56:25.732Z,102079.88
2023-01-23T06:59:27.496Z,102078.03
2023-01-23T07:02:29.227Z,102085.66
2023-01-23T07:05:32.099Z,102104.66
2023-01-23T07:08:34.744Z,102107.88
2023-01-23T07:11:37.293Z,102113.66
2023-01-23T07:14:40.733Z,102115.31
2023-01-23T07:17:44.581Z,102128.47
2023-01-23T07:20:47.169Z,102129.53
2023-01-23T07:23:50.853Z,102136.56
2023-01-23T07:26:52.243Z,102136.59
2023-01-23T07:29:53.613Z,102143.72
2023-01-23T07:32:55.561Z,102145.31
2023-01-23T07:35:56.974Z,102152.28
2023-01-23T07:38:58.968Z,102142.72
2023-01-23T07:42:00.372Z,102145.31
2023-01-23T07:45:03.429Z,102142.19
2023-01-23T07:48:05.166Z,102140.69
2023-01-23T07:51:07.114Z,102144.31
2023-01-23T07:54:08.774Z,102143.84
2023-01-23T07:57:10.281Z,102129.69
2023-01-23T08:00:12.307Z,102139.50
2023-01-23T08:03:16.554Z,102139.78
2023-01-23T08:06:17.970Z,102131.19
2023-01-23T08:09:19.924Z,102126.16
2023-01-23T08:12:21.575Z,102124.47
2023-01-23T08:15:23.026Z,102136.75
2023-01-23T08:18:25.859Z,102135.03
2023-01-23T08:21:27.285Z,102132.66
2023-01-23T08:24:28.703Z,102141.47
2023-01-23T08:27:30.082Z,102142.59
2023-01-23T08:30:31.540Z,102138.38
2023-01-23T08:33:34.198Z,102139.31
2023-01-23T08:36:35.952Z,102137.63
2023-01-23T08:39:37.425Z,102130.72
2023-01-23T08:42:38.930Z,102125.63
2023-01-23T08:45:41.425Z,102135.16
2023-01-23T08:48:42.879Z,102140.69
2023-01-23T08:51:44.263Z,102135.78
2023-01-23T08:54:45.684Z,102133.06
2023-01-23T08:57:47.062Z,102137.06
2023-01-23T09:00:49.185Z,102138.75
2023-01-23T09:03:50.996Z,102145.63
2023-01-23T09:06:52.376Z,102149.22
2023-01-23T09:09:54.998Z,102152.88
2023-01-23T09:12:57.861Z,102165.84
2023-01-23T09:16:00.424Z,102158.81
2023-01-23T09:19:01.885Z,102155.59
2023-01-23T09:22:03.574Z,102163.50
2023-01-23T09:25:05.615Z,102149.66
2023-01-23T09:28:07.214Z,102155.53
2023-01-23T09:31:11.500Z,102145.31
2023-01-23T09:34:13.573Z,102156.38
2023-01-23T09:37:16.733Z,102165.00
2023-01-23T09:40:22.662Z,102172.09
2023-01-23T09:43:44.019Z,102170.28
2023-01-23T09:47:10.699Z,102172.25
2023-01-23T09:50:23.429Z,102168.88
2023-01-23T09:53:31.031Z,102169.03
2023-01-23T09:56:38.234Z,102167.25
2023-01-23T09:59:58.364Z,102164.66
2023-01-23T10:03:02.473Z,102168.00
2023-01-23T10:06:18.401Z,102171.00
2023-01-23T10:09:36.222Z,102175.44
2023-01-23T10:12:52.835Z,102177.69
2023-01-23T10:16:13.447Z,102173.09
2023-01-23T10:19:30.171Z,102180.19
2023-01-23T10:22:39.003Z,102179.25
2023-01-23T10:25:41.243Z,102166.28
2023-01-23T10:28:43.899Z,102162.09
2023-01-23T10:31:54.136Z,102169.78
2023-01-23T10:35:18.718Z,102161.75
2023-01-23T10:38:29.887Z,102164.50
2023-01-23T10:41:33.045Z,102162.88
2023-01-23T10:44:34.589Z,102163.50
2023-01-23T10:47:54.769Z,102175.69
2023-01-23T10:50:56.715Z,102160.13
2023-01-23T10:54:32.926Z,102160.22
2023-01-23T10:57:45.735Z,102166.22
2023-01-23T11:00:47.718Z,102164.84
2023-01-23T11:03:49.177Z,102163.88
2023-01-23T11:07:08.344Z,102163.81
2023-01-23T11:10:09.662Z,102163.72
2023-01-23T11:13:25.913Z,102164.53
2023-01-23T11:16:27.677Z,102161.97
2023-01-23T11:19:32.156Z,102156.84
2023-01-23T11:22:38.181Z,102163.97
2023-01-23T11:25:48.446Z,102167.56
2023-01-23T11:28:51.133Z,102167.63
2023-01-23T11:31:59.012Z,102170.38
2023-01-23T11:35:13.144Z,102162.56
2023-01-23T11:38:27.176Z,102155.88
2023-01-23T11:41:35.697Z,102148.16
2023-01-23T11:44:45.915Z,102143.97
2023-01-23T11:48:29.241Z,102132.56
2023-01-23T11:52:01.660Z,102128.28
2023-01-23T11:55:30.055Z,102127.34
2023-01-23T11:58:49.454Z,102129.13
2023-01-23T12:02:26.452Z,102129.81
2023-01-23T12:05:52.647Z,102122.09
2023-01-23T12:09:17.996Z,102107.56
2023-01-23T12:12:46.167Z,102117.06
2023-01-23T12:16:11.235Z,102118.97
2023-01-23T12:19:33.991Z,102121.56
2023-01-23T12:22:50.696Z,102102.34
2023-01-23T12:26:04.138Z,102103.38
2023-01-23T12:29:28.779Z,102093.00
2023-01-23T12:33:02.485Z,102094.97
2023-01-23T12:36:20.213Z,102080.25
2023-01-23T12:39:43.820Z,102085.72
2023-01-23T12:43:08.143Z,102079.72
2023-01-23T12:46:26.251Z,102077.00
2023-01-23T12:49:38.983Z,102093.41
2023-01-23T12:53:01.005Z,102074.22
2023-01-23T12:56:10.295Z,102076.03
2023-01-23T12:59:24.909Z,102072.63
2023-01-23T13:02:36.881Z,102074.41
2023-01-23T13:06:00.111Z,102070.06
2023-01-23T13:09:17.896Z,102054.28
2023-01-23T13:12:26.141Z,102059.63
2023-01-23T13:15:40.524Z,102063.00
2023-01-23T13:19:13.781Z,102066.41
2023-01-23T13:22:27.354Z,102066.41
2023-01-23T13:25:29.406Z,102064.63
2023-01-23T13:28:45.968Z,102063.84
2023-01-23T13:31:50.425Z,102064.88
2023-01-23T13:34:52.177Z,102054.41
2023-01-23T13:37:53.722Z,102050.06
2023-01-23T13:41:07.198Z,102053.59
2023-01-23T13:44:27.128Z,102045.06
2023-01-23T14:22:20.438Z,102025.19
2023-01-23T14:25:22.202Z,102029.53
2023-01-23T14:28:23.819Z,102024.34
2023-01-23T14:31:29.014Z,102020.03
2023-01-23T14:34:39.183Z,102015.69
2023-01-23T14:37:40.585Z,102013.97
2023-01-23T14:40:50.828Z,102007.19
2023-01-23T14:43:55.037Z,102008.81
2023-01-23T14:46:59.933Z,102009.72
2023-01-23T14:50:03.167Z,102013.16
2023-01-23T14:53:07.404Z,102012.31
2023-01-23T14:56:11.130Z,102009.75
2023-01-23T14:59:23.166Z,102011.41
2023-01-23T15:02:34.799Z,102013.16
2023-01-23T15:05:39.331Z,102015.00
2023-01-23T15:08:41.606Z,102019.50
2023-01-23T15:11:44.711Z,102013.38
2023-01-23T15:14:46.327Z,102023.88
2023-01-23T15:17:48.042Z,102027.38
2023-01-23T15:20:54.519Z,102022.09
2023-01-23T15:24:26.817Z,102028.88
2023-01-23T15:27:32.501Z,102028.72
2023-01-23T15:30:44.940Z,102031.03
2023-01-23T15:33:47.640Z,102034.47
2023-01-23T15:37:08.312Z,102030.84
2023-01-23T15:40:18.343Z,102038.28
2023-01-23T15:43:20.061Z,102036.34
2023-01-23T15:46:21.632Z,102039.63
2023-01-23T15:49:26.142Z,102042.13
2023-01-23T15:52:31.604Z,102037.72
2023-01-23T15:55:33.045Z,102043.81
2023-01-23T15:58:34.413Z,102044.38
2023-01-23T16:01:35.899Z,102045.03
2023-01-23T16:04:37.310Z,102059.88
2023-01-23T16:07:42.019Z,102052.81
2023-01-23T16:10:44.567Z,102056.19
2023-01-23T16:13:46.017Z,102043.06
2023-01-23T16:16:47.455Z,102053.41
2023-01-23T16:19:50.524Z,102051.59
2023-01-23T16:22:54.321Z,102053.34
2023-01-23T16:25:55.885Z,102056.59
2023-01-23T16:29:12.714Z,102052.06
2023-01-23T16:32:14.894Z,102050.94
2023-01-23T16:35:16.525Z,102053.19
2023-01-23T16:38:26.775Z,102045.09
2023-01-23T16:41:28.188Z,102040.50
2023-01-23T16:44:29.639Z,102043.06
2023-01-23T16:47:31.370Z,102044.66
2023-01-23T16:50:36.629Z,102055.06
2023-01-23T16:53:41.524Z,102049.88
2023-01-23T16:56:43.965Z,102054.41
2023-01-23T16:59:46.437Z,102061.28
2023-01-23T17:02:51.275Z,102057.63
2023-01-23T17:05:52.662Z,102052.31
2023-01-23T17:08:54.241Z,102052.16
2023-01-23T17:11:56.482Z,102052.09
2023-01-23T17:14:58.117Z,102045.91
2023-01-23T17:18:01.094Z,102053.75
2023-01-23T17:21:05.553Z,102057.16
2023-01-23T17:24:14.018Z,102061.06
2023-01-23T17:27:15.740Z,102063.25
2023-01-23T17:30:18.508Z,102059.78
2023-01-23T17:33:23.050Z,102056.25
2023-01-23T17:36:26.220Z,102068.59
2023-01-23T17:39:27.752Z,102074.00
2023-01-23T17:42:29.221Z,102081.94
2023-01-23T17:45:30.639Z,102081.06
2023-01-23T17:48:38.338Z,102084.41
2023-01-23T17:51:39.729Z,102087.78
2023-01-23T17:54:41.136Z,102074.72
2023-01-23T17:57:42.818Z,102079.00
2023-01-23T18:00:48.778Z,102092.00
2023-01-23T18:03:51.787Z,102088.53
2023-01-23T18:06:53.231Z,102093.66
2023-01-23T18:09:56.147Z,102104.94
2023-01-23T18:13:13.500Z,102108.25
2023-01-23T18:16:24.818Z,102111.75
2023-01-23T18:19:27.509Z,102111.78
2023-01-23T18:22:29.238Z,102111.66
2023-01-23T18:25:31.095Z,102115.19
2023-01-23T18:28:47.221Z,102120.84
2023-01-23T18:32:08.822Z,102115.47
2023-01-23T18:35:26.130Z,102117.16
2023-01-23T18:38:35.921Z,102113.00
2023-01-23T18:41:46.939Z,102120.09
2023-01-23T18:44:55.324Z,102117.72
2023-01-23T18:47:57.265Z,102127.28
2023-01-23T18:51:23.353Z,102123.84
2023-01-23T18:54:35.178Z,102123.97
2023-01-23T18:57:46.183Z,102125.53
2023-01-23T19:00:53.183Z,102125.59
2023-01-23T19:03:55.239Z,102124.00
2023-01-23T19:06:57.855Z,102120.31
2023-01-23T19:09:59.455Z,102115.19
2023-01-23T19:13:16.195Z,102111.75
2023-01-23T19:16:30.471Z,102113.34
2023-01-23T19:19:41.399Z,102112.50
2023-01-23T19:22:55.587Z,102122.25
2023-01-23T19:25:57.385Z,102122.31
2023-01-23T19:29:05.656Z,102120.66
2023-01-23T19:32:17.414Z,102125.91
2023-01-23T19:35:19.043Z,102126.78
2023-01-23T19:38:22.567Z,102121.59
2023-01-23T19:41:28.764Z,102121.81
2023-01-23T19:44:30.687Z,102121.19
2023-01-23T19:47:32.379Z,102130.78
2023-01-23T19:50:33.815Z,102119.53
2023-01-23T19:53:35.202Z,102124.88
2023-01-23T19:56:38.795Z,102120.63
2023-01-23T19:59:40.439Z,102116.16
2023-01-23T20:02:42.449Z,102120.28
2023-01-23T20:05:43.846Z,102108.28
2023-01-23T20:08:45.410Z,102119.69
2023-01-23T20:11:47.163Z,102115.56
2023-01-23T20:14:48.570Z,102117.66
2023-01-23T20:17:50.031Z,102109.25
2023-01-23T20:20:58.282Z,102113.13
2023-01-23T20:23:59.791Z,102105.44
2023-01-23T20:27:01.291Z,102112.44
2023-01-23T20:30:06.985Z,102110.84
2023-01-23T20:33:08.393Z,102117.00
2023-01-23T20:36:10.981Z,102119.81
2023-01-23T20:39:13.241Z,102121.00
2023-01-23T20:42:14.784Z,102119.19
2023-01-23T20:45:16.297Z,102127.06
2023-01-23T20:48:19.085Z,102129.91
2023-01-23T20:51:20.494Z,102137.63
2023-01-23T20:54:21.909Z,102134.09
2023-01-23T20:57:23.357Z,102121.09
2023-01-23T21:00:24.738Z,102134.34
2023-01-23T21:03:26.150Z,102137.81
2023-01-23T21:06:27.553Z,102136.38
2023-01-23T21:09:29.574Z,102125.19
2023-01-23T21:12:31.085Z,102128.53
2023-01-23T21:15:33.426Z,102150.06
2023-01-23T21:18:36.634Z,102137.28
2023-01-23T21:21:38.216Z,102135.47
2023-01-23T21:24:39.692Z,102139.75
2023-01-23T21:27:41.083Z,102145.06
2023-01-23T21:30:42.617Z,102148.50
2023-01-23T21:33:44.795Z,102146.69
2023-01-23T21:36:46.257Z,102150.06
2023-01-23T21:39:47.719Z,102158.88
2023-01-23T21:42:49.137Z,102165.72
2023-01-23T21:45:50.534Z,102169.25
2023-01-23T21:48:52.291Z,102171.88
2023-01-23T21:51:53.685Z,102164.81
2023-01-23T21:54:56.171Z,102170.09
2023-01-23T21:57:58.259Z,102172.56
2023-01-23T22:01:25.002Z,102175.34
2023-01-23T22:04:26.457Z,102182.34
2023-01-23T22:07:27.854Z,102170.94
2023-01-23T22:10:30.349Z,102170.88
2023-01-23T22:13:32.509Z,102183.94
2023-01-23T22:16:47.863Z,102191.47
2023-01-23T22:19:50.905Z,102188.81
2023-01-23T22:22:53.408Z,102188.09
2023-01-23T22:25:57.049Z,102191.47
2023-01-23T22:28:58.459Z,102180.03
2023-01-23T22:32:00.004Z,102186.06
2023-01-23T22:35:01.696Z,102196.50
2023-01-23T22:38:03.167Z,102186.06
2023-01-23T22:41:05.891Z,102200.78
2023-01-23T22:44:07.380Z,102197.38
2023-01-23T22:47:08.870Z,102199.03
2023-01-23T22:50:10.947Z,102198.03
2023-01-23T22:53:12.342Z,102206.66
2023-01-23T22:56:14.224Z,102198.72
2023-01-23T22:59:15.798Z,102209.16
2023-01-23T23:02:17.205Z,102204.72
2023-01-23T23:05:18.646Z,102208.31
2023-01-23T23:08:20.101Z,102211.84
2023-01-23T23:11:24.525Z,102209.19
2023-01-23T23:14:26.005Z,102212.75
2023-01-23T23:17:29.823Z,102211.84
2023-01-23T23:20:31.858Z,102203.09
2023-01-23T23:23:33.268Z,102209.97
2023-01-23T23:26:34.865Z,102201.56
2023-01-23T23:29:36.369Z,102204.88
2023-01-23T23:32:37.757Z,102192.75
2023-01-23T23:35:39.270Z,102192.69
2023-01-23T23:38:40.686Z,102201.19
2023-01-23T23:41:42.146Z,102199.44
2023-01-23T23:44:43.727Z,102204.78
2023-01-23T23:47:45.111Z,102199.66
2023-01-23T23:50:48.826Z,102204.66
2023-01-23T23:53:50.228Z,102192.38
2023-01-23T23:56:51.609Z,102185.41
2023-01-23T23:59:52.986Z,102180.41
